DFGCG EDDW-EDDW

Flight info

Callsign DFGCG
Flight time N/A
Altitude
Route
Aircraft SF50

Departure

Time 2026-05-06 18:33
Airport Bremen Airport (EDDW)

Arrival

Time N/A
Airport Bremen Airport (EDDW)
Time Latitude Longitude Altitude Speed Heading
2026-05-06 18:14 53.05064 8.78091 6 ft 0 kts 49°
2026-05-06 18:28 53.05061 8.78150 6 ft 11 kts 139°
2026-05-06 18:29 53.04990 8.78246 6 ft 13 kts 152°
2026-05-06 18:29 53.04907 8.78298 5 ft 12 kts 137°
2026-05-06 18:29 53.04855 8.78407 5 ft 11 kts 97°
2026-05-06 18:29 53.04848 8.78530 5 ft 11 kts 91°
2026-05-06 18:30 53.04836 8.78645 4 ft 8 kts 138°
2026-05-06 18:30 53.04821 8.78660 4 ft 5 kts 162°
2026-05-06 18:30 53.04775 8.78664 4 ft 0 kts 179°
2026-05-06 18:32 53.04720 8.78685 4 ft 11 kts 150°
2026-05-06 18:32 53.04695 8.79032 6 ft 69 kts 88°
2026-05-06 18:33 53.04736 8.80157 199 ft 114 kts 83°
2026-05-06 18:33 53.04769 8.81497 785 ft 119 kts 95°
2026-05-06 18:33 53.04510 8.82886 1166 ft 134 kts 131°
2026-05-06 18:33 53.03575 8.83341 1259 ft 154 kts 182°
2026-05-06 18:34 53.02554 8.82993 1473 ft 152 kts 210°
2026-05-06 18:34 53.01828 8.81650 1438 ft 168 kts 243°
2026-05-06 18:34 53.01474 8.79834 1435 ft 164 kts 260°
2026-05-06 18:34 53.01498 8.78026 1575 ft 148 kts 274°
2026-05-06 18:35 53.01604 8.76300 1450 ft 153 kts 276°
2026-05-06 18:35 53.01698 8.74524 1330 ft 157 kts 274°
2026-05-06 18:35 53.01799 8.72693 1170 ft 161 kts 284°
2026-05-06 18:35 53.02359 8.71159 1167 ft 155 kts 319°
2026-05-06 18:36 53.03307 8.70351 1060 ft 155 kts 348°
2026-05-06 18:36 53.04215 8.71022 1035 ft 160 kts 65°
2026-05-06 18:36 53.04485 8.73200 469 ft 219 kts 86°
2026-05-06 18:36 53.04576 8.75702 150 ft 216 kts 85°
2026-05-06 18:37 53.04664 8.78170 22 ft 217 kts 88°
2026-05-06 18:37 53.04715 8.82825 868 ft 173 kts 88°
2026-05-06 18:37 53.04555 8.84639 1264 ft 151 kts 123°
2026-05-06 18:38 53.03708 8.85696 1265 ft 151 kts 161°
2026-05-06 18:38 53.02676 8.85841 1128 ft 150 kts 185°
2026-05-06 18:38 53.01656 8.85565 1012 ft 147 kts 199°
2026-05-06 18:38 53.00790 8.84623 1119 ft 160 kts 227°
2026-05-06 18:39 53.00348 8.82909 1446 ft 165 kts 272°
2026-05-06 18:39 53.00458 8.80931 1537 ft 184 kts 271°
2026-05-06 18:39 53.00544 8.78722 1688 ft 196 kts 274°
2026-05-06 18:40 53.00953 8.73863 1579 ft 228 kts 279°
2026-05-06 18:40 53.01309 8.71331 1672 ft 210 kts 292°
2026-05-06 18:40 53.02100 8.69550 1627 ft 177 kts 321°
2026-05-06 18:40 53.03107 8.68922 1486 ft 145 kts 353°
2026-05-06 18:41 53.04066 8.68882 1228 ft 130 kts 15°
2026-05-06 18:41 53.04592 8.69914 928 ft 126 kts 86°
2026-05-06 18:41 53.04552 8.71348 751 ft 115 kts 93°
2026-05-06 18:41 53.04539 8.72580 691 ft 89 kts 88°
2026-05-06 18:42 53.04558 8.73625 515 ft 91 kts 89°
2026-05-06 18:42 53.04576 8.74658 361 ft 90 kts 88°
2026-05-06 18:42 53.04607 8.75695 237 ft 90 kts 86°
2026-05-06 18:42 53.04639 8.76729 126 ft 88 kts 86°
2026-05-06 18:43 53.04660 8.77735 14 ft 84 kts 88°
2026-05-06 18:43 53.04690 8.78696 16 ft 90 kts 86°
2026-05-06 18:43 53.04731 8.79845 280 ft 117 kts 86°
2026-05-06 18:43 53.04787 8.81294 723 ft 141 kts 85°
2026-05-06 18:44 53.04904 8.83047 1150 ft 161 kts 84°
2026-05-06 18:44 53.04637 8.84918 1579 ft 174 kts 122°
2026-05-06 18:44 53.03696 8.86078 1985 ft 180 kts 160°
2026-05-06 18:44 53.02444 8.86201 2058 ft 183 kts 192°
2026-05-06 18:45 53.01387 8.85021 1787 ft 197 kts 233°
2026-05-06 18:45 53.00871 8.83026 1831 ft 178 kts 260°
2026-05-06 18:45 53.00907 8.80993 1622 ft 178 kts 278°
2026-05-06 18:45 53.01030 8.79613 1376 ft 184 kts 278°
2026-05-06 18:46 53.01252 8.77111 1231 ft 175 kts 278°